createdAt,value
2022-11-12T00:10:21.203Z,95.3
2022-11-12T00:22:21.276Z,96.7
2022-11-12T00:34:21.314Z,95.7
2022-11-12T00:46:21.280Z,95.7
2022-11-12T00:58:21.232Z,96.1
2022-11-12T01:10:21.302Z,96.5
2022-11-12T01:22:21.313Z,96.7
2022-11-12T01:34:21.290Z,96.8
2022-11-12T01:46:21.283Z,96.9
2022-11-12T01:58:21.183Z,96.8
2022-11-12T02:10:21.265Z,96.8
2022-11-12T02:22:21.285Z,96.7
2022-11-12T02:34:21.249Z,96.7
2022-11-12T02:46:21.290Z,96.6
2022-11-12T02:58:21.324Z,96.4
2022-11-12T03:10:21.201Z,96.4
2022-11-12T03:22:21.248Z,96.3
2022-11-12T03:34:21.193Z,96.3
2022-11-12T03:46:21.311Z,96.4
2022-11-12T03:58:21.316Z,96.4
2022-11-12T04:10:21.248Z,96.4
2022-11-12T04:22:21.192Z,96.4
2022-11-12T04:34:21.623Z,96.4
2022-11-12T04:46:21.188Z,96.4
2022-11-12T04:58:21.244Z,96.4
2022-11-12T05:10:21.569Z,96.4
2022-11-12T05:22:40.730Z,96.4
2022-11-12T05:34:23.064Z,96.4
2022-11-12T05:46:21.185Z,96.4
2022-11-12T05:58:21.262Z,96.3
2022-11-12T06:10:21.310Z,96.3
2022-11-12T06:22:21.301Z,96.4
2022-11-12T06:34:21.247Z,96.4
2022-11-12T06:46:21.303Z,96.4
2022-11-12T06:58:21.253Z,96.4
2022-11-12T07:10:21.297Z,96.4
2022-11-12T07:22:21.193Z,96.4
2022-11-12T07:34:21.312Z,96.4
2022-11-12T07:46:21.198Z,96.5
2022-11-12T07:58:21.254Z,96.5
2022-11-12T08:10:21.245Z,96.5
2022-11-12T08:22:21.308Z,96.5
2022-11-12T08:34:22.814Z,96.5
2022-11-12T08:46:21.224Z,96.6
2022-11-12T08:58:21.274Z,96.7
2022-11-12T09:10:21.303Z,96.4
2022-11-12T09:22:21.288Z,95.2
2022-11-12T09:34:21.198Z,96.3
2022-11-12T09:46:27.680Z,96.5
2022-11-12T09:58:21.296Z,95.7
2022-11-12T10:10:21.287Z,95.7
2022-11-12T10:22:21.190Z,95.5
2022-11-12T10:34:21.203Z,95.7
2022-11-12T10:46:21.190Z,96.3
2022-11-12T10:58:21.295Z,95.7
2022-11-12T11:10:21.199Z,95.1
2022-11-12T11:22:21.288Z,94.9
2022-11-12T11:34:21.307Z,94.7
2022-11-12T11:46:21.271Z,93.6
2022-11-12T11:58:21.317Z,92.4
2022-11-12T12:10:21.845Z,90.5
2022-11-12T12:22:21.187Z,89.5
2022-11-12T12:34:21.195Z,88.9
2022-11-12T12:46:21.188Z,88.3
2022-11-12T12:58:21.269Z,87.7
2022-11-12T13:10:21.259Z,83.8
2022-11-12T13:22:21.188Z,81.6
2022-11-12T13:34:21.284Z,80.6
2022-11-12T13:46:21.305Z,79.2
2022-11-12T13:58:21.191Z,79.9
2022-11-12T14:10:21.255Z,79.4
2022-11-12T14:22:21.298Z,81.1
2022-11-12T14:34:21.318Z,81.3
2022-11-12T14:46:21.305Z,81.8
2022-11-12T14:58:21.283Z,81.8
2022-11-12T15:10:21.197Z,82.6
2022-11-12T15:22:21.315Z,83.8
2022-11-12T15:34:21.199Z,84.6
2022-11-12T15:46:21.204Z,85.5
2022-11-12T15:58:21.195Z,86.2
2022-11-12T16:10:21.194Z,86.6
2022-11-12T16:22:21.292Z,87.5
2022-11-12T16:34:21.207Z,87.4
2022-11-12T16:46:21.543Z,88.0
2022-11-12T16:58:21.195Z,87.8
2022-11-12T17:10:21.306Z,87.5
2022-11-12T17:22:21.195Z,87.0
2022-11-12T17:34:21.196Z,86.6
2022-11-12T17:46:21.188Z,85.6
2022-11-12T17:58:21.188Z,84.3
2022-11-12T18:10:21.279Z,83.9
2022-11-12T18:22:21.211Z,84.3
2022-11-12T18:34:21.303Z,84.7
2022-11-12T18:46:21.303Z,84.5
2022-11-12T18:58:21.298Z,85.7
2022-11-12T19:10:21.692Z,86.7
2022-11-12T19:22:21.194Z,87.0
2022-11-12T19:34:21.314Z,87.4
2022-11-12T19:46:21.298Z,87.5
2022-11-12T19:58:21.191Z,87.1
2022-11-12T20:10:21.283Z,86.8
2022-11-12T20:22:21.308Z,86.5
2022-11-12T20:34:21.205Z,86.7
2022-11-12T20:46:21.254Z,87.0
2022-11-12T20:58:21.232Z,87.5
2022-11-12T21:10:21.273Z,88.3
2022-11-12T21:22:21.306Z,88.0
2022-11-12T21:34:21.313Z,87.3
2022-11-12T21:46:21.233Z,87.2
2022-11-12T21:58:21.263Z,88.1
2022-11-12T22:10:21.272Z,88.5
2022-11-12T22:22:21.200Z,89.0
2022-11-12T22:34:21.207Z,88.7
2022-11-12T22:46:21.285Z,88.6
2022-11-12T22:58:21.190Z,90.5
2022-11-12T23:10:21.290Z,91.4
2022-11-12T23:22:21.249Z,92.7
2022-11-12T23:34:21.296Z,92.1
2022-11-12T23:46:21.192Z,92.6
2022-11-12T23:58:21.980Z,93.9
